sensor_id;sensor_type;location;lat;lon;timestamp;P1;durP1;ratioP1;P2;durP2;ratioP2
52948;SDS011;38812;50.942;3.644;2023-02-15T00:01:33;73.97;;;37.47;;
52948;SDS011;38812;50.942;3.644;2023-02-15T00:03:59;79.68;;;37.05;;
52948;SDS011;38812;50.942;3.644;2023-02-15T00:06:24;79.72;;;37.83;;
52948;SDS011;38812;50.942;3.644;2023-02-15T00:08:50;69.95;;;36.15;;
52948;SDS011;38812;50.942;3.644;2023-02-15T00:11:16;79.72;;;38.20;;
52948;SDS011;38812;50.942;3.644;2023-02-15T00:14:07;75.78;;;36.15;;
52948;SDS011;38812;50.942;3.644;2023-02-15T00:16:32;73.28;;;36.60;;
52948;SDS011;38812;50.942;3.644;2023-02-15T00:18:58;74.20;;;35.22;;
52948;SDS011;38812;50.942;3.644;2023-02-15T00:21:27;75.68;;;35.22;;
52948;SDS011;38812;50.942;3.644;2023-02-15T00:23:59;72.10;;;33.17;;
52948;SDS011;38812;50.942;3.644;2023-02-15T00:26:26;70.05;;;34.53;;
52948;SDS011;38812;50.942;3.644;2023-02-15T00:28:51;67.95;;;34.58;;
52948;SDS011;38812;50.942;3.644;2023-02-15T00:31:18;73.50;;;34.67;;
52948;SDS011;38812;50.942;3.644;2023-02-15T00:33:43;69.50;;;36.35;;
52948;SDS011;38812;50.942;3.644;2023-02-15T00:36:09;65.55;;;34.65;;
52948;SDS011;38812;50.942;3.644;2023-02-15T00:38:35;68.72;;;34.80;;
52948;SDS011;38812;50.942;3.644;2023-02-15T00:41:02;74.97;;;36.33;;
52948;SDS011;38812;50.942;3.644;2023-02-15T00:43:29;75.85;;;36.08;;
52948;SDS011;38812;50.942;3.644;2023-02-15T00:45:56;70.55;;;36.40;;
52948;SDS011;38812;50.942;3.644;2023-02-15T00:48:22;75.72;;;37.67;;
52948;SDS011;38812;50.942;3.644;2023-02-15T00:50:54;73.22;;;37.72;;
52948;SDS011;38812;50.942;3.644;2023-02-15T00:53:21;72.97;;;37.38;;
52948;SDS011;38812;50.942;3.644;2023-02-15T00:55:47;79.45;;;37.22;;
52948;SDS011;38812;50.942;3.644;2023-02-15T00:58:13;68.65;;;35.38;;
52948;SDS011;38812;50.942;3.644;2023-02-15T01:00:40;62.65;;;34.08;;
52948;SDS011;38812;50.942;3.644;2023-02-15T01:03:06;64.40;;;31.77;;
52948;SDS011;38812;50.942;3.644;2023-02-15T01:05:32;63.55;;;34.00;;
52948;SDS011;38812;50.942;3.644;2023-02-15T01:07:58;61.97;;;33.25;;
52948;SDS011;38812;50.942;3.644;2023-02-15T01:10:24;67.13;;;34.15;;
52948;SDS011;38812;50.942;3.644;2023-02-15T01:12:50;67.93;;;32.75;;
52948;SDS011;38812;50.942;3.644;2023-02-15T01:15:16;61.70;;;31.17;;
52948;SDS011;38812;50.942;3.644;2023-02-15T01:17:42;57.17;;;29.80;;
52948;SDS011;38812;50.942;3.644;2023-02-15T01:20:10;50.58;;;26.92;;
52948;SDS011;38812;50.942;3.644;2023-02-15T01:22:36;46.22;;;25.77;;
52948;SDS011;38812;50.942;3.644;2023-02-15T01:25:02;48.30;;;25.52;;
52948;SDS011;38812;50.942;3.644;2023-02-15T01:27:27;53.40;;;25.17;;
52948;SDS011;38812;50.942;3.644;2023-02-15T01:29:55;55.03;;;28.27;;
52948;SDS011;38812;50.942;3.644;2023-02-15T01:32:20;55.75;;;27.77;;
52948;SDS011;38812;50.942;3.644;2023-02-15T01:34:46;59.58;;;28.83;;
52948;SDS011;38812;50.942;3.644;2023-02-15T01:37:11;56.35;;;29.67;;
52948;SDS011;38812;50.942;3.644;2023-02-15T01:39:36;55.55;;;28.48;;
52948;SDS011;38812;50.942;3.644;2023-02-15T01:42:02;52.30;;;28.00;;
52948;SDS011;38812;50.942;3.644;2023-02-15T01:47:13;55.17;;;30.55;;
52948;SDS011;38812;50.942;3.644;2023-02-15T01:49:42;57.80;;;29.52;;
52948;SDS011;38812;50.942;3.644;2023-02-15T01:52:09;65.40;;;29.77;;
52948;SDS011;38812;50.942;3.644;2023-02-15T01:54:38;58.15;;;29.08;;
52948;SDS011;38812;50.942;3.644;2023-02-15T01:57:08;54.20;;;29.75;;
52948;SDS011;38812;50.942;3.644;2023-02-15T01:59:37;57.80;;;27.92;;
52948;SDS011;38812;50.942;3.644;2023-02-15T02:02:05;53.28;;;28.02;;
52948;SDS011;38812;50.942;3.644;2023-02-15T02:07:15;51.92;;;27.60;;
52948;SDS011;38812;50.942;3.644;2023-02-15T02:09:44;51.88;;;26.50;;
52948;SDS011;38812;50.942;3.644;2023-02-15T02:12:10;32.28;;;19.70;;
52948;SDS011;38812;50.942;3.644;2023-02-15T02:14:36;34.28;;;17.65;;
52948;SDS011;38812;50.942;3.644;2023-02-15T02:17:11;28.48;;;15.93;;
52948;SDS011;38812;50.942;3.644;2023-02-15T02:28:17;37.60;;;21.73;;
52948;SDS011;38812;50.942;3.644;2023-02-15T02:36:17;32.00;;;19.05;;
52948;SDS011;38812;50.942;3.644;2023-02-15T02:41:40;37.50;;;20.25;;
52948;SDS011;38812;50.942;3.644;2023-02-15T02:49:31;47.70;;;25.08;;
52948;SDS011;38812;50.942;3.644;2023-02-15T02:51:58;49.22;;;25.10;;
52948;SDS011;38812;50.942;3.644;2023-02-15T02:54:25;47.85;;;25.38;;
52948;SDS011;38812;50.942;3.644;2023-02-15T02:56:51;42.72;;;23.80;;
52948;SDS011;38812;50.942;3.644;2023-02-15T02:59:20;45.47;;;25.10;;
52948;SDS011;38812;50.942;3.644;2023-02-15T03:01:52;49.65;;;25.63;;
52948;SDS011;38812;50.942;3.644;2023-02-15T03:04:31;50.75;;;26.83;;
52948;SDS011;38812;50.942;3.644;2023-02-15T03:07:04;56.78;;;28.75;;
52948;SDS011;38812;50.942;3.644;2023-02-15T03:09:42;55.28;;;28.17;;
52948;SDS011;38812;50.942;3.644;2023-02-15T03:12:19;58.70;;;30.35;;
52948;SDS011;38812;50.942;3.644;2023-02-15T03:14:51;61.70;;;30.88;;
52948;SDS011;38812;50.942;3.644;2023-02-15T03:17:18;60.30;;;30.35;;
52948;SDS011;38812;50.942;3.644;2023-02-15T03:19:47;55.92;;;29.15;;
52948;SDS011;38812;50.942;3.644;2023-02-15T03:22:31;65.50;;;28.50;;
52948;SDS011;38812;50.942;3.644;2023-02-15T03:30:36;69.50;;;32.45;;
52948;SDS011;38812;50.942;3.644;2023-02-15T03:33:05;74.55;;;34.28;;
52948;SDS011;38812;50.942;3.644;2023-02-15T03:35:36;74.63;;;36.20;;
52948;SDS011;38812;50.942;3.644;2023-02-15T03:38:09;72.63;;;35.20;;
52948;SDS011;38812;50.942;3.644;2023-02-15T03:40:40;70.32;;;33.70;;
52948;SDS011;38812;50.942;3.644;2023-02-15T03:43:48;75.72;;;32.67;;
52948;SDS011;38812;50.942;3.644;2023-02-15T03:52:10;73.13;;;33.22;;
52948;SDS011;38812;50.942;3.644;2023-02-15T03:54:38;83.18;;;39.08;;
52948;SDS011;38812;50.942;3.644;2023-02-15T03:57:08;79.68;;;38.80;;
52948;SDS011;38812;50.942;3.644;2023-02-15T04:00:24;76.60;;;38.17;;
52948;SDS011;38812;50.942;3.644;2023-02-15T04:05:39;75.45;;;36.40;;
52948;SDS011;38812;50.942;3.644;2023-02-15T04:08:06;80.03;;;36.42;;
52948;SDS011;38812;50.942;3.644;2023-02-15T04:10:31;73.28;;;35.92;;
52948;SDS011;38812;50.942;3.644;2023-02-15T04:13:15;78.45;;;36.75;;
52948;SDS011;38812;50.942;3.644;2023-02-15T04:15:41;84.45;;;37.17;;
52948;SDS011;38812;50.942;3.644;2023-02-15T04:18:24;77.50;;;36.78;;
52948;SDS011;38812;50.942;3.644;2023-02-15T04:21:08;78.28;;;35.33;;
52948;SDS011;38812;50.942;3.644;2023-02-15T04:23:52;72.05;;;36.08;;
52948;SDS011;38812;50.942;3.644;2023-02-15T04:26:36;77.93;;;38.63;;
52948;SDS011;38812;50.942;3.644;2023-02-15T04:29:02;81.70;;;38.65;;
52948;SDS011;38812;50.942;3.644;2023-02-15T04:31:27;74.85;;;37.40;;
52948;SDS011;38812;50.942;3.644;2023-02-15T04:33:52;78.78;;;37.47;;
52948;SDS011;38812;50.942;3.644;2023-02-15T04:36:18;72.72;;;36.95;;
52948;SDS011;38812;50.942;3.644;2023-02-15T04:38:43;71.15;;;35.97;;
52948;SDS011;38812;50.942;3.644;2023-02-15T04:41:09;79.82;;;40.88;;
52948;SDS011;38812;50.942;3.644;2023-02-15T04:43:36;77.00;;;37.75;;
52948;SDS011;38812;50.942;3.644;2023-02-15T04:46:01;82.13;;;38.40;;
52948;SDS011;38812;50.942;3.644;2023-02-15T04:48:27;77.13;;;38.05;;
52948;SDS011;38812;50.942;3.644;2023-02-15T04:50:52;83.05;;;40.28;;
52948;SDS011;38812;50.942;3.644;2023-02-15T04:53:17;78.55;;;38.65;;
52948;SDS011;38812;50.942;3.644;2023-02-15T04:55:43;76.97;;;39.03;;
52948;SDS011;38812;50.942;3.644;2023-02-15T04:58:08;77.63;;;37.45;;
52948;SDS011;38812;50.942;3.644;2023-02-15T05:00:34;88.03;;;38.50;;
52948;SDS011;38812;50.942;3.644;2023-02-15T05:02:59;73.10;;;37.83;;
52948;SDS011;38812;50.942;3.644;2023-02-15T05:05:25;82.28;;;38.30;;
52948;SDS011;38812;50.942;3.644;2023-02-15T05:07:50;75.68;;;35.97;;
52948;SDS011;38812;50.942;3.644;2023-02-15T05:10:16;71.82;;;33.78;;
52948;SDS011;38812;50.942;3.644;2023-02-15T05:12:41;74.15;;;34.70;;
52948;SDS011;38812;50.942;3.644;2023-02-15T05:15:07;83.97;;;37.38;;
52948;SDS011;38812;50.942;3.644;2023-02-15T05:17:32;77.88;;;36.08;;
52948;SDS011;38812;50.942;3.644;2023-02-15T05:19:58;75.47;;;36.45;;
52948;SDS011;38812;50.942;3.644;2023-02-15T05:22:24;80.90;;;34.85;;
52948;SDS011;38812;50.942;3.644;2023-02-15T05:24:49;71.78;;;34.08;;
52948;SDS011;38812;50.942;3.644;2023-02-15T05:27:33;66.07;;;33.08;;
52948;SDS011;38812;50.942;3.644;2023-02-15T05:30:17;73.63;;;33.55;;
52948;SDS011;38812;50.942;3.644;2023-02-15T05:32:42;65.28;;;34.20;;
52948;SDS011;38812;50.942;3.644;2023-02-15T05:35:11;69.55;;;34.28;;
52948;SDS011;38812;50.942;3.644;2023-02-15T05:37:40;67.85;;;33.45;;
52948;SDS011;38812;50.942;3.644;2023-02-15T05:40:05;68.32;;;34.35;;
52948;SDS011;38812;50.942;3.644;2023-02-15T05:42:32;66.95;;;32.75;;
52948;SDS011;38812;50.942;3.644;2023-02-15T05:44:57;68.93;;;32.20;;
52948;SDS011;38812;50.942;3.644;2023-02-15T05:47:23;70.88;;;34.75;;
52948;SDS011;38812;50.942;3.644;2023-02-15T05:49:48;73.88;;;34.40;;
52948;SDS011;38812;50.942;3.644;2023-02-15T05:52:13;67.38;;;32.33;;
52948;SDS011;38812;50.942;3.644;2023-02-15T05:54:39;66.60;;;33.15;;
52948;SDS011;38812;50.942;3.644;2023-02-15T05:57:04;80.32;;;35.03;;
52948;SDS011;38812;50.942;3.644;2023-02-15T05:59:30;76.35;;;36.47;;
52948;SDS011;38812;50.942;3.644;2023-02-15T06:01:55;70.18;;;35.95;;
52948;SDS011;38812;50.942;3.644;2023-02-15T06:04:20;75.80;;;36.03;;
52948;SDS011;38812;50.942;3.644;2023-02-15T06:06:46;77.90;;;35.08;;
52948;SDS011;38812;50.942;3.644;2023-02-15T06:09:12;78.90;;;34.42;;
52948;SDS011;38812;50.942;3.644;2023-02-15T06:11:38;73.43;;;34.28;;
52948;SDS011;38812;50.942;3.644;2023-02-15T06:14:03;92.07;;;38.55;;
52948;SDS011;38812;50.942;3.644;2023-02-15T06:16:29;74.20;;;35.08;;
52948;SDS011;38812;50.942;3.644;2023-02-15T06:18:54;74.35;;;34.95;;
52948;SDS011;38812;50.942;3.644;2023-02-15T06:21:20;87.10;;;37.25;;
52948;SDS011;38812;50.942;3.644;2023-02-15T06:23:45;74.50;;;37.50;;
52948;SDS011;38812;50.942;3.644;2023-02-15T06:26:10;74.65;;;36.90;;
52948;SDS011;38812;50.942;3.644;2023-02-15T06:28:36;89.53;;;38.78;;
52948;SDS011;38812;50.942;3.644;2023-02-15T06:31:02;84.70;;;38.30;;
52948;SDS011;38812;50.942;3.644;2023-02-15T06:33:28;81.45;;;39.13;;
52948;SDS011;38812;50.942;3.644;2023-02-15T06:35:55;81.13;;;37.45;;
52948;SDS011;38812;50.942;3.644;2023-02-15T06:38:21;83.95;;;36.83;;
52948;SDS011;38812;50.942;3.644;2023-02-15T06:40:47;77.85;;;36.05;;
52948;SDS011;38812;50.942;3.644;2023-02-15T06:43:12;76.53;;;35.55;;
52948;SDS011;38812;50.942;3.644;2023-02-15T06:45:37;78.43;;;36.47;;
52948;SDS011;38812;50.942;3.644;2023-02-15T06:48:03;88.65;;;36.83;;
52948;SDS011;38812;50.942;3.644;2023-02-15T06:50:31;77.05;;;36.88;;
52948;SDS011;38812;50.942;3.644;2023-02-15T06:52:58;86.13;;;38.33;;
52948;SDS011;38812;50.942;3.644;2023-02-15T06:55:24;80.93;;;38.35;;
52948;SDS011;38812;50.942;3.644;2023-02-15T06:57:50;77.03;;;37.47;;
52948;SDS011;38812;50.942;3.644;2023-02-15T07:00:16;82.00;;;36.63;;
52948;SDS011;38812;50.942;3.644;2023-02-15T07:02:42;86.03;;;39.05;;
52948;SDS011;38812;50.942;3.644;2023-02-15T07:05:08;83.43;;;36.63;;
52948;SDS011;38812;50.942;3.644;2023-02-15T07:07:34;79.22;;;36.15;;
52948;SDS011;38812;50.942;3.644;2023-02-15T07:09:59;78.95;;;36.47;;
52948;SDS011;38812;50.942;3.644;2023-02-15T07:12:24;78.30;;;37.60;;
52948;SDS011;38812;50.942;3.644;2023-02-15T07:15:11;81.68;;;41.22;;
52948;SDS011;38812;50.942;3.644;2023-02-15T07:17:41;75.63;;;37.70;;
52948;SDS011;38812;50.942;3.644;2023-02-15T07:20:08;78.07;;;39.25;;
52948;SDS011;38812;50.942;3.644;2023-02-15T07:22:38;88.10;;;40.05;;
52948;SDS011;38812;50.942;3.644;2023-02-15T07:25:04;88.20;;;39.97;;
52948;SDS011;38812;50.942;3.644;2023-02-15T07:27:31;85.07;;;38.35;;
52948;SDS011;38812;50.942;3.644;2023-02-15T07:29:57;82.95;;;40.30;;
52948;SDS011;38812;50.942;3.644;2023-02-15T07:32:23;80.93;;;39.33;;
52948;SDS011;38812;50.942;3.644;2023-02-15T07:34:48;95.35;;;40.47;;
52948;SDS011;38812;50.942;3.644;2023-02-15T07:37:14;90.65;;;41.45;;
52948;SDS011;38812;50.942;3.644;2023-02-15T07:39:39;85.65;;;42.00;;
52948;SDS011;38812;50.942;3.644;2023-02-15T07:42:04;81.50;;;41.47;;
52948;SDS011;38812;50.942;3.644;2023-02-15T07:44:30;85.90;;;42.00;;
52948;SDS011;38812;50.942;3.644;2023-02-15T07:46:55;101.80;;;45.75;;
52948;SDS011;38812;50.942;3.644;2023-02-15T07:49:21;95.28;;;44.92;;
52948;SDS011;38812;50.942;3.644;2023-02-15T07:51:46;90.35;;;43.03;;
52948;SDS011;38812;50.942;3.644;2023-02-15T07:54:12;98.70;;;43.08;;
52948;SDS011;38812;50.942;3.644;2023-02-15T07:56:37;98.45;;;45.53;;
52948;SDS011;38812;50.942;3.644;2023-02-15T07:59:03;88.35;;;43.58;;
52948;SDS011;38812;50.942;3.644;2023-02-15T08:01:31;88.82;;;42.90;;
52948;SDS011;38812;50.942;3.644;2023-02-15T08:03:58;78.97;;;40.03;;
52948;SDS011;38812;50.942;3.644;2023-02-15T08:06:25;93.43;;;46.63;;
52948;SDS011;38812;50.942;3.644;2023-02-15T08:08:52;94.13;;;45.70;;
52948;SDS011;38812;50.942;3.644;2023-02-15T08:14:08;87.72;;;45.08;;
52948;SDS011;38812;50.942;3.644;2023-02-15T08:16:36;94.88;;;46.67;;
52948;SDS011;38812;50.942;3.644;2023-02-15T08:19:06;78.95;;;42.13;;
52948;SDS011;38812;50.942;3.644;2023-02-15T08:21:43;86.55;;;41.60;;
52948;SDS011;38812;50.942;3.644;2023-02-15T08:24:14;81.43;;;41.78;;
52948;SDS011;38812;50.942;3.644;2023-02-15T08:26:41;79.53;;;37.42;;
52948;SDS011;38812;50.942;3.644;2023-02-15T08:29:07;71.03;;;36.90;;
52948;SDS011;38812;50.942;3.644;2023-02-15T08:31:33;70.57;;;35.58;;
52948;SDS011;38812;50.942;3.644;2023-02-15T08:34:00;71.28;;;36.25;;
52948;SDS011;38812;50.942;3.644;2023-02-15T08:36:26;66.97;;;35.42;;
52948;SDS011;38812;50.942;3.644;2023-02-15T08:38:54;69.45;;;34.63;;
52948;SDS011;38812;50.942;3.644;2023-02-15T08:41:23;77.22;;;38.33;;
52948;SDS011;38812;50.942;3.644;2023-02-15T08:43:54;71.63;;;37.88;;
52948;SDS011;38812;50.942;3.644;2023-02-15T08:46:23;70.88;;;37.65;;
52948;SDS011;38812;50.942;3.644;2023-02-15T08:48:51;67.50;;;37.53;;
52948;SDS011;38812;50.942;3.644;2023-02-15T08:51:21;68.03;;;33.65;;
52948;SDS011;38812;50.942;3.644;2023-02-15T08:53:49;60.20;;;33.08;;
52948;SDS011;38812;50.942;3.644;2023-02-15T08:56:17;62.55;;;33.33;;
52948;SDS011;38812;50.942;3.644;2023-02-15T08:58:44;55.53;;;30.63;;
52948;SDS011;38812;50.942;3.644;2023-02-15T09:01:10;65.82;;;30.60;;
52948;SDS011;38812;50.942;3.644;2023-02-15T09:03:37;60.72;;;30.02;;
52948;SDS011;38812;50.942;3.644;2023-02-15T09:06:03;60.83;;;31.42;;
52948;SDS011;38812;50.942;3.644;2023-02-15T09:08:29;55.97;;;30.27;;
52948;SDS011;38812;50.942;3.644;2023-02-15T09:11:04;57.97;;;29.90;;
52948;SDS011;38812;50.942;3.644;2023-02-15T09:13:30;59.47;;;29.95;;
52948;SDS011;38812;50.942;3.644;2023-02-15T09:15:59;53.10;;;28.42;;
52948;SDS011;38812;50.942;3.644;2023-02-15T09:18:26;55.47;;;26.95;;
52948;SDS011;38812;50.942;3.644;2023-02-15T09:20:51;51.47;;;26.00;;
52948;SDS011;38812;50.942;3.644;2023-02-15T09:23:16;39.55;;;24.08;;
52948;SDS011;38812;50.942;3.644;2023-02-15T09:25:42;50.75;;;24.92;;
52948;SDS011;38812;50.942;3.644;2023-02-15T09:28:07;39.45;;;22.73;;
52948;SDS011;38812;50.942;3.644;2023-02-15T09:30:33;45.40;;;23.92;;
52948;SDS011;38812;50.942;3.644;2023-02-15T09:32:59;52.50;;;24.40;;
52948;SDS011;38812;50.942;3.644;2023-02-15T09:35:24;45.70;;;22.88;;
52948;SDS011;38812;50.942;3.644;2023-02-15T09:37:50;50.05;;;26.08;;
52948;SDS011;38812;50.942;3.644;2023-02-15T09:40:15;51.95;;;27.00;;
52948;SDS011;38812;50.942;3.644;2023-02-15T09:46:11;46.83;;;24.92;;
52948;SDS011;38812;50.942;3.644;2023-02-15T09:49:04;41.10;;;23.58;;
52948;SDS011;38812;50.942;3.644;2023-02-15T09:51:57;47.00;;;25.27;;
52948;SDS011;38812;50.942;3.644;2023-02-15T09:55:21;48.40;;;24.63;;
52948;SDS011;38812;50.942;3.644;2023-02-15T09:57:42;42.50;;;23.13;;
52948;SDS011;38812;50.942;3.644;2023-02-15T10:03:07;41.47;;;23.05;;
52948;SDS011;38812;50.942;3.644;2023-02-15T10:10:57;42.78;;;23.42;;
52948;SDS011;38812;50.942;3.644;2023-02-15T10:19:23;44.53;;;24.23;;
52948;SDS011;38812;50.942;3.644;2023-02-15T10:24:49;46.55;;;26.40;;
52948;SDS011;38812;50.942;3.644;2023-02-15T10:27:38;51.95;;;25.05;;
52948;SDS011;38812;50.942;3.644;2023-02-15T10:30:12;55.05;;;25.45;;
52948;SDS011;38812;50.942;3.644;2023-02-15T10:32:59;53.97;;;27.63;;
52948;SDS011;38812;50.942;3.644;2023-02-15T10:40:53;50.63;;;26.55;;
52948;SDS011;38812;50.942;3.644;2023-02-15T10:43:57;55.35;;;26.10;;
52948;SDS011;38812;50.942;3.644;2023-02-15T10:46:41;48.08;;;26.80;;
52948;SDS011;38812;50.942;3.644;2023-02-15T10:51:51;44.30;;;25.35;;
52948;SDS011;38812;50.942;3.644;2023-02-15T10:57:10;45.35;;;26.77;;
52948;SDS011;38812;50.942;3.644;2023-02-15T11:00:19;45.47;;;27.00;;
52948;SDS011;38812;50.942;3.644;2023-02-15T11:08:14;51.22;;;26.05;;
52948;SDS011;38812;50.942;3.644;2023-02-15T11:10:48;44.50;;;25.60;;
52948;SDS011;38812;50.942;3.644;2023-02-15T11:13:18;47.63;;;26.77;;
52948;SDS011;38812;50.942;3.644;2023-02-15T11:15:53;55.85;;;27.08;;
52948;SDS011;38812;50.942;3.644;2023-02-15T11:21:04;53.15;;;27.33;;
52948;SDS011;38812;50.942;3.644;2023-02-15T11:23:39;54.03;;;27.13;;
52948;SDS011;38812;50.942;3.644;2023-02-15T11:31:49;53.13;;;27.60;;
52948;SDS011;38812;50.942;3.644;2023-02-15T11:34:20;51.83;;;28.13;;
52948;SDS011;38812;50.942;3.644;2023-02-15T11:37:00;51.20;;;27.65;;
52948;SDS011;38812;50.942;3.644;2023-02-15T11:39:30;47.75;;;26.90;;
52948;SDS011;38812;50.942;3.644;2023-02-15T11:41:59;51.92;;;28.65;;
52948;SDS011;38812;50.942;3.644;2023-02-15T11:44:39;46.25;;;27.77;;
52948;SDS011;38812;50.942;3.644;2023-02-15T11:47:10;55.70;;;29.27;;
52948;SDS011;38812;50.942;3.644;2023-02-15T11:49:36;53.97;;;27.83;;
52948;SDS011;38812;50.942;3.644;2023-02-15T11:52:07;51.60;;;28.27;;
52948;SDS011;38812;50.942;3.644;2023-02-15T11:54:39;44.38;;;26.42;;
52948;SDS011;38812;50.942;3.644;2023-02-15T12:02:46;52.10;;;28.02;;
52948;SDS011;38812;50.942;3.644;2023-02-15T12:05:18;56.97;;;29.05;;
52948;SDS011;38812;50.942;3.644;2023-02-15T12:07:49;49.90;;;27.73;;
52948;SDS011;38812;50.942;3.644;2023-02-15T12:10:36;49.50;;;28.60;;
52948;SDS011;38812;50.942;3.644;2023-02-15T12:13:13;50.17;;;27.70;;
52948;SDS011;38812;50.942;3.644;2023-02-15T12:15:46;56.92;;;28.33;;
52948;SDS011;38812;50.942;3.644;2023-02-15T12:18:18;50.88;;;28.20;;
52948;SDS011;38812;50.942;3.644;2023-02-15T12:21:05;51.22;;;28.45;;
52948;SDS011;38812;50.942;3.644;2023-02-15T12:23:39;62.67;;;30.33;;
52948;SDS011;38812;50.942;3.644;2023-02-15T12:26:30;55.35;;;27.80;;
52948;SDS011;38812;50.942;3.644;2023-02-15T12:29:00;54.60;;;28.33;;
52948;SDS011;38812;50.942;3.644;2023-02-15T12:31:35;54.80;;;28.98;;
52948;SDS011;38812;50.942;3.644;2023-02-15T12:34:09;54.90;;;28.85;;
52948;SDS011;38812;50.942;3.644;2023-02-15T12:36:46;59.40;;;29.55;;
52948;SDS011;38812;50.942;3.644;2023-02-15T12:49:41;49.78;;;28.10;;
52948;SDS011;38812;50.942;3.644;2023-02-15T12:54:45;50.15;;;29.63;;
52948;SDS011;38812;50.942;3.644;2023-02-15T12:57:25;60.80;;;31.05;;
52948;SDS011;38812;50.942;3.644;2023-02-15T13:02:35;55.25;;;29.25;;
52948;SDS011;38812;50.942;3.644;2023-02-15T13:13:25;56.35;;;30.92;;
52948;SDS011;38812;50.942;3.644;2023-02-15T13:15:58;56.80;;;30.50;;
52948;SDS011;38812;50.942;3.644;2023-02-15T13:18:32;54.47;;;31.20;;
52948;SDS011;38812;50.942;3.644;2023-02-15T13:21:12;54.78;;;30.83;;
52948;SDS011;38812;50.942;3.644;2023-02-15T13:26:51;55.33;;;30.60;;
52948;SDS011;38812;50.942;3.644;2023-02-15T13:29:23;54.83;;;29.92;;
52948;SDS011;38812;50.942;3.644;2023-02-15T13:31:52;51.42;;;28.33;;
52948;SDS011;38812;50.942;3.644;2023-02-15T13:34:28;48.20;;;28.00;;
52948;SDS011;38812;50.942;3.644;2023-02-15T13:37:04;48.53;;;28.63;;
52948;SDS011;38812;50.942;3.644;2023-02-15T13:47:59;52.60;;;27.67;;
52948;SDS011;38812;50.942;3.644;2023-02-15T13:55:40;46.78;;;26.33;;
52948;SDS011;38812;50.942;3.644;2023-02-15T14:06:50;50.38;;;26.13;;
52948;SDS011;38812;50.942;3.644;2023-02-15T14:09:40;46.63;;;26.42;;
52948;SDS011;38812;50.942;3.644;2023-02-15T14:23:02;47.92;;;25.58;;
52948;SDS011;38812;50.942;3.644;2023-02-15T14:25:47;44.00;;;24.25;;
52948;SDS011;38812;50.942;3.644;2023-02-15T14:29:03;43.70;;;25.15;;
52948;SDS011;38812;50.942;3.644;2023-02-15T14:31:09;43.00;;;25.48;;
52948;SDS011;38812;50.942;3.644;2023-02-15T14:33:43;41.83;;;24.67;;
52948;SDS011;38812;50.942;3.644;2023-02-15T14:36:18;40.65;;;24.65;;
52948;SDS011;38812;50.942;3.644;2023-02-15T14:42:03;47.78;;;24.73;;
52948;SDS011;38812;50.942;3.644;2023-02-15T14:47:46;44.72;;;25.75;;
52948;SDS011;38812;50.942;3.644;2023-02-15T14:49:55;32.70;;;17.77;;
52948;SDS011;38812;50.942;3.644;2023-02-15T14:52:20;45.00;;;26.75;;
52948;SDS011;38812;50.942;3.644;2023-02-15T14:59:49;53.20;;;26.00;;
52948;SDS011;38812;50.942;3.644;2023-02-15T15:02:26;44.10;;;25.63;;
52948;SDS011;38812;50.942;3.644;2023-02-15T15:04:59;44.38;;;25.48;;
52948;SDS011;38812;50.942;3.644;2023-02-15T15:12:55;44.90;;;26.40;;
52948;SDS011;38812;50.942;3.644;2023-02-15T15:18:09;49.67;;;29.08;;
52948;SDS011;38812;50.942;3.644;2023-02-15T15:20:55;52.17;;;27.67;;
52948;SDS011;38812;50.942;3.644;2023-02-15T15:23:38;47.85;;;27.50;;
52948;SDS011;38812;50.942;3.644;2023-02-15T15:31:18;50.63;;;26.52;;
52948;SDS011;38812;50.942;3.644;2023-02-15T15:46:02;47.05;;;25.52;;
52948;SDS011;38812;50.942;3.644;2023-02-15T15:48:29;48.53;;;26.80;;
52948;SDS011;38812;50.942;3.644;2023-02-15T15:51:03;53.58;;;27.65;;
52948;SDS011;38812;50.942;3.644;2023-02-15T15:53:38;50.55;;;27.38;;
52948;SDS011;38812;50.942;3.644;2023-02-15T15:56:08;47.33;;;27.23;;
52948;SDS011;38812;50.942;3.644;2023-02-15T15:59:01;50.77;;;27.03;;
52948;SDS011;38812;50.942;3.644;2023-02-15T16:01:37;43.67;;;26.90;;
52948;SDS011;38812;50.942;3.644;2023-02-15T16:04:11;57.65;;;27.33;;
52948;SDS011;38812;50.942;3.644;2023-02-15T16:06:58;46.17;;;26.42;;
52948;SDS011;38812;50.942;3.644;2023-02-15T16:09:37;48.25;;;26.90;;
52948;SDS011;38812;50.942;3.644;2023-02-15T16:12:03;53.65;;;27.00;;
52948;SDS011;38812;50.942;3.644;2023-02-15T16:14:31;57.10;;;28.45;;
52948;SDS011;38812;50.942;3.644;2023-02-15T16:17:01;55.00;;;27.15;;
52948;SDS011;38812;50.942;3.644;2023-02-15T16:19:30;52.00;;;28.27;;
52948;SDS011;38812;50.942;3.644;2023-02-15T16:22:00;49.67;;;28.13;;
52948;SDS011;38812;50.942;3.644;2023-02-15T16:29:52;56.05;;;31.02;;
52948;SDS011;38812;50.942;3.644;2023-02-15T16:32:21;58.20;;;30.15;;
52948;SDS011;38812;50.942;3.644;2023-02-15T16:37:32;52.00;;;30.15;;
52948;SDS011;38812;50.942;3.644;2023-02-15T16:39:59;56.30;;;29.00;;
52948;SDS011;38812;50.942;3.644;2023-02-15T16:42:25;64.10;;;28.80;;
52948;SDS011;38812;50.942;3.644;2023-02-15T16:44:51;59.55;;;28.58;;
52948;SDS011;38812;50.942;3.644;2023-02-15T16:47:25;48.70;;;28.30;;
52948;SDS011;38812;50.942;3.644;2023-02-15T16:49:54;52.08;;;27.73;;
52948;SDS011;38812;50.942;3.644;2023-02-15T16:52:24;57.40;;;28.65;;
52948;SDS011;38812;50.942;3.644;2023-02-15T16:54:53;52.03;;;28.40;;
52948;SDS011;38812;50.942;3.644;2023-02-15T16:57:22;50.97;;;28.13;;
52948;SDS011;38812;50.942;3.644;2023-02-15T16:59:52;57.03;;;29.00;;
52948;SDS011;38812;50.942;3.644;2023-02-15T17:02:22;53.13;;;30.27;;
52948;SDS011;38812;50.942;3.644;2023-02-15T17:05:04;49.63;;;27.55;;
52948;SDS011;38812;50.942;3.644;2023-02-15T17:07:40;50.65;;;28.23;;
52948;SDS011;38812;50.942;3.644;2023-02-15T17:10:40;53.17;;;29.15;;
52948;SDS011;38812;50.942;3.644;2023-02-15T17:13:10;57.80;;;30.60;;
52948;SDS011;38812;50.942;3.644;2023-02-15T17:18:24;51.40;;;28.83;;
52948;SDS011;38812;50.942;3.644;2023-02-15T17:20:55;60.13;;;33.10;;
52948;SDS011;38812;50.942;3.644;2023-02-15T17:26:11;54.83;;;31.98;;
52948;SDS011;38812;50.942;3.644;2023-02-15T17:28:45;62.97;;;31.85;;
52948;SDS011;38812;50.942;3.644;2023-02-15T17:31:14;50.97;;;30.42;;
52948;SDS011;38812;50.942;3.644;2023-02-15T17:33:42;57.42;;;30.35;;
52948;SDS011;38812;50.942;3.644;2023-02-15T17:36:17;55.67;;;30.45;;
52948;SDS011;38812;50.942;3.644;2023-02-15T17:41:43;52.25;;;28.63;;
52948;SDS011;38812;50.942;3.644;2023-02-15T17:44:09;58.47;;;30.80;;
52948;SDS011;38812;50.942;3.644;2023-02-15T17:46:39;52.28;;;29.40;;
52948;SDS011;38812;50.942;3.644;2023-02-15T17:49:05;51.97;;;29.52;;
52948;SDS011;38812;50.942;3.644;2023-02-15T17:51:31;52.40;;;30.45;;
52948;SDS011;38812;50.942;3.644;2023-02-15T17:53:59;54.88;;;28.83;;
52948;SDS011;38812;50.942;3.644;2023-02-15T17:56:43;54.95;;;30.10;;
52948;SDS011;38812;50.942;3.644;2023-02-15T17:59:09;58.75;;;31.85;;
52948;SDS011;38812;50.942;3.644;2023-02-15T18:01:37;60.65;;;33.20;;
52948;SDS011;38812;50.942;3.644;2023-02-15T18:04:28;52.45;;;30.38;;
52948;SDS011;38812;50.942;3.644;2023-02-15T18:07:12;54.67;;;32.15;;
52948;SDS011;38812;50.942;3.644;2023-02-15T18:09:56;70.43;;;37.60;;